createdAt,value
2023-03-24T00:00:30.908Z,7.42
2023-03-24T00:03:37.159Z,7.40
2023-03-24T00:06:49.538Z,7.33
2023-03-24T00:09:55.576Z,7.20
2023-03-24T00:13:32.575Z,7.18
2023-03-24T00:16:47.885Z,7.09
2023-03-24T00:19:53.028Z,7.04
2023-03-24T00:23:22.457Z,6.99
2023-03-24T00:26:26.495Z,6.96
2023-03-24T00:30:11.737Z,6.91
2023-03-24T00:33:14.375Z,6.97
2023-03-24T00:36:37.792Z,6.91
2023-03-24T00:39:42.608Z,6.87
2023-03-24T00:42:50.228Z,6.82
2023-03-24T00:46:02.191Z,6.78
2023-03-24T00:49:15.789Z,6.73
2023-03-24T00:52:21.443Z,6.76
2023-03-24T00:55:29.027Z,6.74
2023-03-24T00:58:52.225Z,6.71
2023-03-24T01:01:58.114Z,6.66
2023-03-24T01:05:33.952Z,6.62
2023-03-24T01:08:58.073Z,6.67
2023-03-24T01:12:01.222Z,6.64
2023-03-24T01:15:13.356Z,6.70
2023-03-24T01:18:17.641Z,6.80
2023-03-24T01:21:42.576Z,6.93
2023-03-24T01:24:50.641Z,7.04
2023-03-24T01:27:57.837Z,7.14
2023-03-24T01:31:02.690Z,7.19
2023-03-24T01:34:06.484Z,7.29
2023-03-24T01:37:29.408Z,7.23
2023-03-24T01:40:42.691Z,7.15
2023-03-24T01:44:31.996Z,7.09
2023-03-24T01:47:35.406Z,6.99
2023-03-24T01:50:40.875Z,6.88
2023-03-24T01:54:16.772Z,6.85
2023-03-24T01:57:28.788Z,6.77
2023-03-24T02:00:52.547Z,6.69
2023-03-24T02:04:06.656Z,6.65
2023-03-24T02:07:43.704Z,6.65
2023-03-24T02:10:55.342Z,6.62
2023-03-24T02:14:26.628Z,6.66
2023-03-24T02:18:19.216Z,6.64
2023-03-24T02:21:39.623Z,6.59
2023-03-24T02:25:02.969Z,6.55
2023-03-24T02:28:15.753Z,6.52
2023-03-24T02:31:48.086Z,6.49
2023-03-24T02:35:55.126Z,6.51
2023-03-24T02:39:17.409Z,6.53
2023-03-24T02:42:50.278Z,6.50
2023-03-24T02:46:24.688Z,6.40
2023-03-24T02:50:31.419Z,6.38
2023-03-24T02:53:45.360Z,6.33
2023-03-24T02:57:23.230Z,6.37
2023-03-24T03:00:33.909Z,6.37
2023-03-24T03:04:24.286Z,6.36
2023-03-24T03:07:37.745Z,6.32
2023-03-24T03:11:07.185Z,6.29
2023-03-24T03:14:44.477Z,6.27
2023-03-24T03:18:06.061Z,6.23
2023-03-24T03:21:39.338Z,6.24
2023-03-24T03:24:50.777Z,6.20
2023-03-24T03:28:18.221Z,6.18
2023-03-24T03:31:29.908Z,6.25
2023-03-24T03:34:36.219Z,6.26
2023-03-24T03:37:51.690Z,6.28
2023-03-24T03:40:59.709Z,6.26
2023-03-24T03:44:07.852Z,6.27
2023-03-24T03:47:11.580Z,6.23
2023-03-24T03:50:17.775Z,6.20
2023-03-24T03:53:30.799Z,6.16
2023-03-24T03:57:00.743Z,6.09
2023-03-24T04:00:44.960Z,6.06
2023-03-24T04:04:20.384Z,6.04
2023-03-24T04:07:41.680Z,6.05
2023-03-24T04:11:32.701Z,5.93
2023-03-24T04:14:58.394Z,5.86
2023-03-24T04:18:20.296Z,5.78
2023-03-24T04:21:58.573Z,5.79
2023-03-24T04:26:01.796Z,5.74
2023-03-24T04:29:25.967Z,5.71
2023-03-24T04:32:33.675Z,5.74
2023-03-24T04:35:53.467Z,5.75
2023-03-24T04:39:29.005Z,5.71
2023-03-24T04:42:54.905Z,5.71
2023-03-24T04:45:58.651Z,5.73
2023-03-24T04:49:05.197Z,5.71
2023-03-24T04:52:12.627Z,5.67
2023-03-24T04:55:32.934Z,5.67
2023-03-24T04:58:58.841Z,5.65
2023-03-24T05:02:03.354Z,5.68
2023-03-24T05:05:49.767Z,5.72
2023-03-24T05:09:14.772Z,5.87
2023-03-24T05:12:18.742Z,5.85
2023-03-24T05:15:23.246Z,5.92
2023-03-24T05:18:31.624Z,5.98
2023-03-24T05:21:55.043Z,6.04
2023-03-24T05:25:02.116Z,6.14
2023-03-24T05:28:14.220Z,6.25
2023-03-24T05:31:22.033Z,6.37
2023-03-24T05:35:00.837Z,6.47
2023-03-24T05:38:05.666Z,6.60
2023-03-24T05:41:16.749Z,6.64
2023-03-24T05:44:22.319Z,6.76
2023-03-24T05:47:46.789Z,6.88
2023-03-24T05:50:52.882Z,6.98
2023-03-24T05:54:06.124Z,7.11
2023-03-24T05:57:16.736Z,7.26
2023-03-24T06:01:10.436Z,7.48
2023-03-24T06:04:14.609Z,7.78
2023-03-24T06:07:43.010Z,8.10
2023-03-24T06:10:46.384Z,8.43
2023-03-24T06:13:51.106Z,8.70
2023-03-24T06:17:28.872Z,9.04
2023-03-24T06:20:37.547Z,9.27
2023-03-24T06:23:44.343Z,9.48
2023-03-24T06:27:30.807Z,9.77
2023-03-24T06:30:59.372Z,10.14
2023-03-24T06:34:25.619Z,10.43
2023-03-24T06:37:29.875Z,10.71
2023-03-24T06:40:34.103Z,10.77
2023-03-24T06:43:37.354Z,10.87
2023-03-24T06:46:43.159Z,11.08
2023-03-24T06:50:07.351Z,11.32
2023-03-24T06:53:11.351Z,11.59
2023-03-24T06:56:17.903Z,11.88
2023-03-24T06:59:41.454Z,12.11
2023-03-24T07:02:45.941Z,12.34
2023-03-24T07:05:52.219Z,12.69
2023-03-24T07:09:15.649Z,12.93
2023-03-24T07:12:22.158Z,12.74
2023-03-24T07:15:25.388Z,13.04
2023-03-24T07:18:48.479Z,13.35
2023-03-24T07:21:51.747Z,13.47
2023-03-24T07:24:58.221Z,13.46
2023-03-24T07:28:04.062Z,13.87
2023-03-24T07:31:11.142Z,14.08
2023-03-24T07:34:16.957Z,14.26
2023-03-24T07:37:52.645Z,14.14
2023-03-24T07:41:00.793Z,14.44
2023-03-24T07:44:04.127Z,14.68
2023-03-24T07:47:11.726Z,14.93
2023-03-24T07:50:15.379Z,15.10
2023-03-24T07:53:22.469Z,15.22
2023-03-24T07:56:26.178Z,15.47
2023-03-24T07:59:34.768Z,15.77
2023-03-24T08:02:40.049Z,16.33
2023-03-24T08:05:47.816Z,16.74
2023-03-24T08:08:54.475Z,16.71
2023-03-24T08:12:00.562Z,17.03
2023-03-24T08:15:11.801Z,17.33
2023-03-24T08:18:16.335Z,17.40
2023-03-24T08:21:19.602Z,16.44
2023-03-24T08:28:28.588Z,18.10
2023-03-24T08:31:35.888Z,18.29
2023-03-24T08:34:38.612Z,18.09
2023-03-24T08:37:45.528Z,17.05
2023-03-24T08:40:52.247Z,18.27
2023-03-24T08:43:59.747Z,18.97
2023-03-24T08:47:06.835Z,19.01
2023-03-24T08:50:10.454Z,19.16
2023-03-24T08:53:13.572Z,19.04
2023-03-24T08:56:20.643Z,19.22
2023-03-24T08:59:25.935Z,19.88
2023-03-24T09:02:29.914Z,20.65
2023-03-24T09:05:44.556Z,20.87
2023-03-24T09:08:48.087Z,21.04
2023-03-24T09:11:51.398Z,20.33
2023-03-24T09:14:54.783Z,19.82
2023-03-24T09:17:58.189Z,20.60
2023-03-24T09:21:03.736Z,20.50
2023-03-24T09:24:07.315Z,21.53
2023-03-24T09:27:11.345Z,22.13
2023-03-24T09:30:17.405Z,22.07
2023-03-24T09:33:25.841Z,21.76
2023-03-24T09:36:31.090Z,21.67
2023-03-24T09:40:28.510Z,21.91
2023-03-24T09:43:55.346Z,21.77
2023-03-24T09:47:13.383Z,21.74
2023-03-24T09:50:37.718Z,21.66
2023-03-24T09:53:47.311Z,21.84
2023-03-24T09:56:55.695Z,22.02
2023-03-24T09:59:59.798Z,22.15
2023-03-24T10:03:19.796Z,20.97
2023-03-24T10:06:42.254Z,20.93
2023-03-24T10:09:53.654Z,22.62
2023-03-24T10:13:08.056Z,22.98
2023-03-24T10:16:13.219Z,22.13
2023-03-24T10:19:59.629Z,21.83
2023-03-24T10:23:28.800Z,21.83
2023-03-24T10:26:39.713Z,22.06
2023-03-24T10:29:46.698Z,21.91
2023-03-24T10:32:51.903Z,20.08
2023-03-24T10:36:21.302Z,19.22
2023-03-24T10:39:34.245Z,20.23
2023-03-24T10:42:49.901Z,21.04
2023-03-24T10:46:17.534Z,19.98
2023-03-24T10:49:23.131Z,20.40
2023-03-24T10:52:27.153Z,20.78
2023-03-24T10:55:36.209Z,21.41
2023-03-24T10:59:00.128Z,22.43
2023-03-24T11:02:12.430Z,21.95
2023-03-24T11:05:19.933Z,22.47
2023-03-24T11:08:36.256Z,22.84
2023-03-24T11:11:39.559Z,22.03
2023-03-24T11:14:46.123Z,22.82
2023-03-24T11:17:59.305Z,21.84
2023-03-24T11:21:22.670Z,22.44
2023-03-24T11:24:29.123Z,22.62
2023-03-24T11:27:42.791Z,23.02
2023-03-24T11:30:48.230Z,22.70
2023-03-24T11:34:02.853Z,24.13
2023-03-24T11:37:36.154Z,25.44
2023-03-24T11:40:38.796Z,24.42
2023-03-24T11:44:19.645Z,23.47
2023-03-24T11:47:32.949Z,22.97
2023-03-24T11:50:39.037Z,23.77
2023-03-24T11:53:48.189Z,23.57
2023-03-24T11:57:02.783Z,24.29
2023-03-24T12:00:34.726Z,24.36
2023-03-24T12:04:31.459Z,24.54
2023-03-24T12:07:58.357Z,24.10
2023-03-24T12:11:20.604Z,23.71
2023-03-24T12:15:26.755Z,23.26
2023-03-24T12:19:01.002Z,23.38
2023-03-24T12:22:32.852Z,23.30
2023-03-24T12:26:08.396Z,24.12
2023-03-24T12:30:01.043Z,23.50
2023-03-24T12:33:55.937Z,24.08
2023-03-24T12:37:35.742Z,24.36
2023-03-24T12:41:06.796Z,23.64
2023-03-24T12:44:38.873Z,23.31
2023-03-24T12:48:18.905Z,23.70
2023-03-24T12:51:50.899Z,23.29
2023-03-24T12:55:51.266Z,23.32
2023-03-24T12:59:13.442Z,22.65
2023-03-24T13:02:30.971Z,22.62
2023-03-24T13:05:47.772Z,22.49
2023-03-24T13:09:44.178Z,22.32
2023-03-24T13:16:50.374Z,22.99
2023-03-24T13:20:38.841Z,23.40
2023-03-24T13:24:13.694Z,23.45
2023-03-24T13:27:42.113Z,23.33
2023-03-24T13:31:11.846Z,23.04
2023-03-24T13:35:21.239Z,22.79
2023-03-24T13:38:47.576Z,22.81
2023-03-24T13:42:37.714Z,22.83
2023-03-24T13:46:30.408Z,22.77
2023-03-24T13:49:35.275Z,22.21
2023-03-24T13:52:52.199Z,21.92
2023-03-24T13:56:55.439Z,22.12
2023-03-24T14:00:28.640Z,22.41
2023-03-24T14:04:09.427Z,23.26
2023-03-24T14:07:45.150Z,23.34
2023-03-24T14:11:51.838Z,23.74
2023-03-24T14:15:46.082Z,23.22
2023-03-24T14:19:41.952Z,23.51
2023-03-24T14:23:37.865Z,23.66
2023-03-24T14:27:24.255Z,22.69
2023-03-24T14:31:02.301Z,23.37
2023-03-24T14:34:25.639Z,23.28
2023-03-24T14:37:29.379Z,23.11
2023-03-24T14:40:40.140Z,23.32
2023-03-24T14:43:43.330Z,22.65
2023-03-24T14:46:50.376Z,22.03
2023-03-24T14:49:55.979Z,21.73
2023-03-24T14:53:04.760Z,21.56
2023-03-24T14:56:22.290Z,21.81
2023-03-24T14:59:48.587Z,21.82
2023-03-24T15:03:11.025Z,21.49
2023-03-24T15:06:49.266Z,21.58
2023-03-24T15:09:52.270Z,21.57
2023-03-24T15:12:55.685Z,21.45
2023-03-24T15:16:19.626Z,21.45
2023-03-24T15:19:27.074Z,21.54
2023-03-24T15:22:42.521Z,21.53
2023-03-24T15:25:47.978Z,21.43
2023-03-24T15:29:05.483Z,21.48
2023-03-24T15:32:32.232Z,21.17
2023-03-24T15:35:40.239Z,20.87
2023-03-24T15:38:48.400Z,20.76
2023-03-24T15:42:26.318Z,20.66
2023-03-24T15:45:36.272Z,20.44
2023-03-24T15:49:04.105Z,20.42
2023-03-24T15:52:25.589Z,20.38
2023-03-24T15:55:35.200Z,20.26
2023-03-24T15:59:04.264Z,20.19
2023-03-24T16:02:16.130Z,20.10
2023-03-24T16:05:26.230Z,20.02
2023-03-24T16:08:44.894Z,19.98
2023-03-24T16:11:54.968Z,19.88
2023-03-24T16:15:06.119Z,19.80
2023-03-24T16:18:15.515Z,19.72
2023-03-24T16:21:23.312Z,19.59
2023-03-24T16:24:30.635Z,19.50
2023-03-24T16:27:37.608Z,19.36
2023-03-24T16:30:45.176Z,19.30
2023-03-24T16:33:48.955Z,19.16
2023-03-24T16:36:56.663Z,19.03
2023-03-24T16:40:03.426Z,18.92
2023-03-24T16:43:08.728Z,18.80
2023-03-24T16:46:28.790Z,18.70
2023-03-24T16:49:35.452Z,18.56
2023-03-24T16:52:39.922Z,18.37
2023-03-24T16:55:44.594Z,18.17
2023-03-24T16:58:48.515Z,18.02
2023-03-24T17:01:52.720Z,17.88
2023-03-24T17:04:57.148Z,17.65
2023-03-24T17:08:04.500Z,17.46
2023-03-24T17:11:10.501Z,17.26
2023-03-24T17:14:45.825Z,17.09
2023-03-24T17:17:49.287Z,16.90
2023-03-24T17:20:52.658Z,16.78
2023-03-24T17:23:57.734Z,16.65
2023-03-24T17:27:10.409Z,16.51
2023-03-24T17:30:23.191Z,16.45
2023-03-24T17:33:27.788Z,16.29
2023-03-24T17:36:31.492Z,16.14
2023-03-24T17:39:34.394Z,16.02
2023-03-24T17:42:46.461Z,15.91
2023-03-24T17:45:51.708Z,15.83
2023-03-24T17:48:54.622Z,15.74
2023-03-24T17:52:01.945Z,15.66
2023-03-24T17:55:06.391Z,15.55
2023-03-24T17:58:09.742Z,15.44
2023-03-24T18:01:18.374Z,15.32
2023-03-24T18:04:23.967Z,15.17
2023-03-24T18:07:27.407Z,15.02
2023-03-24T18:10:33.563Z,14.90
2023-03-24T18:13:36.359Z,14.73
2023-03-24T18:16:40.403Z,14.57
2023-03-24T18:20:11.265Z,14.45
2023-03-24T18:23:37.304Z,14.37
2023-03-24T18:26:43.934Z,14.25
2023-03-24T18:29:48.581Z,14.15
2023-03-24T18:33:18.763Z,14.06
2023-03-24T18:36:50.723Z,13.95
2023-03-24T18:39:56.367Z,13.83
2023-03-24T18:42:59.903Z,13.80
2023-03-24T18:46:03.215Z,13.72
2023-03-24T18:49:07.178Z,13.68
2023-03-24T18:52:15.540Z,13.66
2023-03-24T18:55:26.878Z,13.67
2023-03-24T18:58:30.087Z,13.63
2023-03-24T19:01:38.132Z,13.62
2023-03-24T19:04:44.523Z,13.58
2023-03-24T19:07:52.057Z,13.58
2023-03-24T19:11:16.078Z,13.59
2023-03-24T19:14:25.248Z,13.58
2023-03-24T19:17:51.474Z,13.58
2023-03-24T19:21:02.083Z,13.57
2023-03-24T19:24:05.079Z,13.56
2023-03-24T19:27:12.597Z,13.57
2023-03-24T19:30:17.970Z,13.57
2023-03-24T19:33:26.759Z,13.60
2023-03-24T19:36:42.716Z,13.63
2023-03-24T19:39:48.917Z,13.63
2023-03-24T19:42:54.832Z,13.62
2023-03-24T19:45:58.983Z,13.52
2023-03-24T19:49:06.426Z,13.40
2023-03-24T19:52:12.682Z,13.29
2023-03-24T19:55:17.885Z,13.17
2023-03-24T19:58:26.440Z,13.00
2023-03-24T20:02:01.931Z,12.85
2023-03-24T20:05:06.908Z,12.70
2023-03-24T20:08:09.858Z,12.79
2023-03-24T20:11:16.931Z,12.71
2023-03-24T20:14:20.401Z,12.69
2023-03-24T20:17:29.624Z,12.54
2023-03-24T20:20:32.671Z,12.50
2023-03-24T20:23:37.820Z,12.51
2023-03-24T20:26:41.581Z,12.45
2023-03-24T20:29:46.407Z,12.49
2023-03-24T20:32:53.677Z,12.42
2023-03-24T20:35:59.995Z,12.39
2023-03-24T20:39:02.689Z,12.45
2023-03-24T20:42:18.007Z,12.89
2023-03-24T20:45:22.979Z,13.48
2023-03-24T20:48:26.826Z,13.92
2023-03-24T20:51:29.905Z,14.00
2023-03-24T20:54:54.589Z,14.00
2023-03-24T20:57:59.341Z,14.01
2023-03-24T21:01:06.162Z,13.91
2023-03-24T21:04:31.190Z,13.78
2023-03-24T21:07:38.804Z,13.57
2023-03-24T21:10:42.465Z,13.46
2023-03-24T21:13:47.342Z,13.34
2023-03-24T21:17:13.202Z,13.26
2023-03-24T21:20:19.001Z,13.33
2023-03-24T21:23:28.791Z,13.53
2023-03-24T21:26:36.030Z,13.85
2023-03-24T21:29:39.638Z,14.11
2023-03-24T21:32:43.651Z,14.44
2023-03-24T21:35:46.834Z,14.59
2023-03-24T21:38:51.807Z,14.75
2023-03-24T21:41:56.741Z,14.87
2023-03-24T21:45:04.794Z,14.92
2023-03-24T21:48:27.699Z,14.95
2023-03-24T21:51:42.394Z,14.94
2023-03-24T21:54:45.362Z,14.85
2023-03-24T21:57:52.730Z,14.87
2023-03-24T22:00:55.441Z,14.83
2023-03-24T22:04:19.358Z,14.76
2023-03-24T22:07:42.946Z,14.91
2023-03-24T22:11:10.766Z,14.99
2023-03-24T22:14:39.194Z,15.16
2023-03-24T22:17:43.992Z,15.21
2023-03-24T22:21:14.756Z,15.23
2023-03-24T22:25:07.127Z,15.17
2023-03-24T22:28:12.322Z,15.11
2023-03-24T22:31:17.017Z,15.12
2023-03-24T22:35:05.081Z,15.03
2023-03-24T22:38:15.408Z,14.95
2023-03-24T22:41:38.520Z,14.97
2023-03-24T22:44:49.671Z,14.89
2023-03-24T22:48:32.777Z,14.88
2023-03-24T22:51:36.917Z,14.82
2023-03-24T22:54:45.015Z,14.80
2023-03-24T22:58:10.365Z,14.96
2023-03-24T23:01:13.638Z,14.95
2023-03-24T23:04:40.694Z,15.01
2023-03-24T23:07:44.474Z,14.95
2023-03-24T23:10:56.106Z,14.94
2023-03-24T23:14:09.380Z,14.84
2023-03-24T23:17:13.633Z,14.87
2023-03-24T23:20:20.538Z,14.92
2023-03-24T23:23:24.038Z,14.81
2023-03-24T23:26:52.466Z,14.83
2023-03-24T23:30:16.200Z,14.77
2023-03-24T23:33:22.594Z,14.83
2023-03-24T23:36:26.499Z,14.74
2023-03-24T23:39:53.106Z,14.67
2023-03-24T23:43:17.682Z,14.60
2023-03-24T23:46:24.589Z,14.52
2023-03-24T23:49:29.394Z,14.51
2023-03-24T23:52:34.813Z,14.54
2023-03-24T23:55:38.528Z,14.49
2023-03-24T23:58:43.217Z,14.42
